Time;durP1;ratioP1;P1;durP2;ratioP2;P2;SDS_P1;SDS_P2;PMS_P1;PMS_P2;Temp;Humidity;BMP_temperature;BMP_pressure;BME280_temperature;BME280_humidity;BME280_pressure;Samples;Min_cycle;Max_cycle;Signal;HPM_P1;HPM_P2
2021/06/30 00:00:39;;;;;;;14.05;12.50;;;;;;;18.08;71.40;96395.23;1767690;79;25679;-81
2021/06/30 00:03:08;;;;;;;13.43;11.70;;;;;;;18.08;71.49;96394.42;1764610;79;25799;-81
2021/06/30 00:05:34;;;;;;;11.83;10.60;;;;;;;18.02;71.52;96390.89;1760532;81;25666;-80
2021/06/30 00:08:02;;;;;;;12.43;10.95;;;;;;;18.00;71.61;96382.98;1754537;81;28182;-82
2021/06/30 00:10:28;;;;;;;13.60;11.48;;;;;;;17.99;71.69;96384.66;1767856;81;25703;-80
2021/06/30 00:12:55;;;;;;;12.37;11.15;;;;;;;17.89;71.61;96394.25;1747652;81;25777;-81
2021/06/30 00:15:26;;;;;;;13.45;12.05;;;;;;;17.83;71.85;96407.12;1768128;81;26313;-80
2021/06/30 00:17:53;;;;;;;16.10;11.50;;;;;;;17.80;71.92;96410.96;1767047;80;25733;-81
2021/06/30 00:20:20;;;;;;;11.85;10.68;;;;;;;17.81;72.06;96416.69;1755335;81;27605;-81
2021/06/30 00:22:47;;;;;;;12.68;11.57;;;;;;;17.82;72.00;96419.69;1763912;81;25755;-81
2021/06/30 00:25:15;;;;;;;14.10;11.33;;;;;;;17.84;71.92;96422.96;1767969;81;25865;-81
2021/06/30 00:27:43;;;;;;;12.15;11.05;;;;;;;17.80;71.93;96423.24;1760361;81;26339;-81
2021/06/30 00:30:11;;;;;;;15.20;11.53;;;;;;;17.81;71.98;96428.97;1758099;81;26328;-81
2021/06/30 00:32:38;;;;;;;12.68;11.38;;;;;;;17.76;72.05;96428.44;1761268;81;27407;-81
2021/06/30 00:35:06;;;;;;;12.30;10.88;;;;;;;17.74;72.18;96431.20;1764007;81;25771;-81
2021/06/30 00:37:32;;;;;;;11.50;10.40;;;;;;;17.72;72.22;96427.94;1766790;81;25798;-80
2021/06/30 00:39:59;;;;;;;12.40;11.08;;;;;;;17.72;72.30;96424.66;1762983;80;25704;-81
2021/06/30 00:42:30;;;;;;;12.90;11.38;;;;;;;17.72;72.30;96421.11;1762641;81;25619;-81
2021/06/30 00:44:57;;;;;;;12.65;11.45;;;;;;;17.68;72.36;96429.03;1755347;81;27362;-81
2021/06/30 00:47:24;;;;;;;13.03;11.73;;;;;;;17.66;72.48;96436.68;1765449;81;25318;-81
2021/06/30 00:49:51;;;;;;;15.08;11.90;;;;;;;17.67;72.72;96447.86;1762800;81;25804;-81
2021/06/30 00:52:17;;;;;;;16.07;12.53;;;;;;;17.67;72.80;96462.06;1764260;81;25681;-81
2021/06/30 00:54:44;;;;;;;15.58;11.53;;;;;;;17.67;72.95;96468.88;1755392;81;25766;-81
2021/06/30 00:57:14;;;;;;;13.75;12.35;;;;;;;17.68;72.94;96504.63;1755479;81;27359;-82
2021/06/30 00:59:40;;;;;;;15.23;13.62;;;;;;;17.71;73.05;96539.56;1758669;81;25988;-83
2021/06/30 01:02:07;;;;;;;16.02;13.35;;;;;;;17.69;73.33;96529.47;1768003;80;25870;-81
2021/06/30 01:04:33;;;;;;;14.50;13.00;;;;;;;17.66;73.71;96525.92;1753904;81;25827;-81
2021/06/30 01:07:00;;;;;;;15.60;12.82;;;;;;;17.73;74.42;96510.09;1751981;80;25694;-84
2021/06/30 01:09:27;;;;;;;14.65;12.53;;;;;;;17.92;74.63;96522.02;1766871;81;27492;-82
2021/06/30 01:11:53;;;;;;;10.80;9.45;;;;;;;18.09;74.68;96515.67;1755175;81;25796;-83
2021/06/30 01:14:32;;;;;;;16.52;7.85;;;;;;;18.30;74.19;96521.83;1781712;80;25719;-79
2021/06/30 01:17:01;;;;;;;13.50;7.03;;;;;;;18.54;73.83;96537.81;1791305;79;25774;-80
2021/06/30 01:19:28;;;;;;;11.65;7.30;;;;;;;18.72;73.41;96551.38;1748408;80;26386;-82
2021/06/30 01:21:57;;;;;;;14.53;7.22;;;;;;;18.86;72.92;96585.19;1774729;79;28226;-82
2021/06/30 01:24:24;;;;;;;16.67;8.13;;;;;;;18.97;72.82;96581.28;1742591;81;25727;-83
2021/06/30 01:26:51;;;;;;;10.55;6.80;;;;;;;18.97;73.01;96600.97;1747056;81;25701;-81
2021/06/30 01:29:22;;;;;;;6.67;5.03;;;;;;;18.86;72.81;96593.39;1759948;81;25680;-81
2021/06/30 01:31:52;;;;;;;8.75;4.60;;;;;;;18.69;72.84;96599.80;1758231;81;25787;-86
2021/06/30 01:34:19;;;;;;;7.37;3.87;;;;;;;18.53;72.91;96610.52;1768015;81;28340;-83
2021/06/30 01:36:53;;;;;;;8.43;3.47;;;;;;;18.42;73.02;96598.00;1757555;79;25717;-82
2021/06/30 01:39:23;;;;;;;4.37;3.12;;;;;;;18.34;73.07;96593.40;1757796;80;25279;-85
2021/06/30 01:41:50;;;;;;;5.40;2.83;;;;;;;18.27;73.06;96609.26;1749655;82;25847;-84
2021/06/30 01:44:16;;;;;;;6.83;3.70;;;;;;;18.22;73.06;96610.66;1744110;81;25773;-83
2021/06/30 01:46:44;;;;;;;6.58;2.60;;;;;;;18.22;73.15;96639.89;1749225;82;27896;-81
2021/06/30 01:49:11;;;;;;;3.37;3.00;;;;;;;18.25;72.95;96634.66;1746753;81;26213;-83
2021/06/30 01:51:38;;;;;;;5.25;3.17;;;;;;;18.28;73.06;96633.30;1739253;82;25725;-82
2021/06/30 01:54:13;;;;;;;8.40;3.35;;;;;;;18.28;73.05;96612.81;1744068;82;25829;-82
2021/06/30 01:56:36;;;;;;;7.47;3.83;;;;;;;18.26;73.15;96580.30;1782857;79;25523;-82
2021/06/30 01:59:13;;;;;;;4.22;3.70;;;;;;;18.29;73.27;96583.84;1743543;81;27372;-81
2021/06/30 02:01:41;;;;;;;6.97;3.35;;;;;;;18.32;73.45;96575.64;1786899;79;26326;-81
2021/06/30 02:04:09;;;;;;;6.95;3.27;;;;;;;18.30;73.43;96526.75;1774227;79;25783;-83
2021/06/30 02:06:42;;;;;;;3.83;3.42;;;;;;;18.29;73.63;96566.09;1765782;80;25723;-83
2021/06/30 02:09:12;;;;;;;9.58;3.65;;;;;;;18.21;73.72;96555.77;1756117;81;25810;-85
2021/06/30 02:11:40;;;;;;;4.25;3.85;;;;;;;18.12;73.73;96560.15;1750330;81;27490;-86
2021/06/30 02:14:09;;;;;;;9.25;4.20;;;;;;;18.11;73.97;96557.17;1779931;79;26524;-88
2021/06/30 02:16:36;;;;;;;7.60;3.95;;;;;;;18.10;74.06;96554.17;1742885;81;25800;-85
2021/06/30 02:19:06;;;;;;;7.60;4.33;;;;;;;18.12;74.06;96548.41;1790104;79;25725;-86
2021/06/30 02:21:35;;;;;;;8.60;4.30;;;;;;;18.13;74.18;96518.09;1783451;80;25703;-86
2021/06/30 02:24:03;;;;;;;7.58;4.75;;;;;;;18.17;74.30;96505.51;1790294;80;28345;-86
2021/06/30 02:26:31;;;;;;;6.40;4.25;;;;;;;18.20;74.46;96512.33;1770279;80;25886;-86
2021/06/30 02:28:58;;;;;;;5.90;4.62;;;;;;;18.18;74.57;96496.22;1776916;80;25838;-86
2021/06/30 02:31:25;;;;;;;5.40;4.78;;;;;;;18.10;74.47;96477.70;1730978;81;25745;-86
2021/06/30 02:33:52;;;;;;;6.90;4.78;;;;;;;18.09;74.70;96459.69;1761272;79;26217;-86
2021/06/30 02:36:20;;;;;;;14.20;4.97;;;;;;;18.11;74.88;96449.30;1771760;79;27353;-86
2021/06/30 02:38:46;;;;;;;7.85;4.42;;;;;;;18.13;74.86;96448.98;1785925;79;25782;-86
2021/06/30 02:41:13;;;;;;;9.70;4.72;;;;;;;18.08;74.93;96441.66;1784198;79;25896;-86
2021/06/30 02:43:41;;;;;;;4.30;3.90;;;;;;;18.00;75.00;96440.32;1790186;79;26065;-86
2021/06/30 02:46:09;;;;;;;4.20;3.70;;;;;;;17.99;75.11;96437.91;1777476;79;25730;-86
2021/06/30 02:48:35;;;;;;;9.00;4.92;;;;;;;18.03;75.16;96435.41;1777471;79;27524;-85
2021/06/30 02:51:02;;;;;;;7.50;4.25;;;;;;;18.00;75.17;96437.59;1788993;79;26081;-86
2021/06/30 02:53:29;;;;;;;6.12;3.98;;;;;;;17.99;75.22;96426.98;1783446;79;25872;-85
2021/06/30 02:55:55;;;;;;;9.50;4.80;;;;;;;17.95;75.24;96416.34;1785728;79;25806;-86
2021/06/30 02:58:22;;;;;;;12.07;4.85;;;;;;;17.97;75.39;96419.61;1782704;79;25628;-86
2021/06/30 03:00:49;;;;;;;5.33;4.60;;;;;;;17.96;75.39;96416.61;1787060;79;27409;-85
2021/06/30 03:03:15;;;;;;;4.75;4.25;;;;;;;17.97;75.39;96411.42;1763784;79;25849;-86
2021/06/30 03:05:42;;;;;;;9.53;4.78;;;;;;;17.97;75.47;96398.59;1783663;78;25716;-85
2021/06/30 03:08:08;;;;;;;6.37;4.42;;;;;;;17.98;75.46;96395.31;1784265;79;25731;-85
2021/06/30 03:10:35;;;;;;;6.55;5.05;;;;;;;17.92;75.52;96386.32;1782448;79;25720;-85
2021/06/30 03:13:02;;;;;;;6.45;4.08;;;;;;;17.84;75.54;96373.83;1782216;79;28233;-86
2021/06/30 03:15:29;;;;;;;5.90;4.70;;;;;;;17.78;75.63;96369.48;1785856;80;25687;-87
2021/06/30 03:17:55;;;;;;;6.87;5.25;;;;;;;17.77;75.75;96367.84;1787215;80;26230;-87
2021/06/30 03:20:22;;;;;;;8.60;5.17;;;;;;;17.79;75.88;96367.02;1784953;78;26169;-86
2021/06/30 03:22:48;;;;;;;6.42;5.15;;;;;;;17.76;75.90;96370.30;1777391;79;25734;-85
2021/06/30 03:25:15;;;;;;;5.67;5.17;;;;;;;17.73;76.07;96375.80;1763747;79;27512;-87
2021/06/30 03:27:43;;;;;;;7.35;5.53;;;;;;;17.73;76.14;96381.81;1779253;79;25731;-86
2021/06/30 03:30:12;;;;;;;9.00;5.53;;;;;;;17.73;76.21;96376.35;1742654;80;25304;-87
2021/06/30 03:32:39;;;;;;;8.40;5.35;;;;;;;17.77;76.29;96377.40;1772087;78;25701;-88
2021/06/30 03:35:08;;;;;;;6.25;5.08;;;;;;;17.80;76.37;96386.39;1779648;79;25739;-87
2021/06/30 03:37:35;;;;;;;7.20;5.50;;;;;;;17.78;76.35;96389.95;1769562;80;28552;-87
2021/06/30 03:40:03;;;;;;;6.03;5.42;;;;;;;17.78;76.43;96379.85;1747675;78;25730;-85
2021/06/30 03:42:29;;;;;;;5.20;4.78;;;;;;;17.83;76.50;96381.75;1733684;81;25714;-86
2021/06/30 03:44:56;;;;;;;9.05;5.15;;;;;;;17.85;76.51;96379.55;1744650;81;26294;-85
2021/06/30 03:47:22;;;;;;;6.92;5.42;;;;;;;17.88;76.52;96381.70;1753750;80;25828;-87
2021/06/30 03:49:49;;;;;;;7.30;4.87;;;;;;;17.88;76.54;96386.61;1755768;81;27511;-88
2021/06/30 03:52:16;;;;;;;9.35;5.22;;;;;;;17.83;76.60;96382.56;1755867;80;26035;-86
2021/06/30 03:54:42;;;;;;;10.53;5.00;;;;;;;17.79;76.76;96385.58;1755869;81;25762;-86
2021/06/30 03:57:09;;;;;;;5.58;5.08;;;;;;;17.75;76.94;96382.34;1755885;81;25716;-87
2021/06/30 03:59:35;;;;;;;8.15;5.70;;;;;;;17.71;77.10;96376.62;1755806;81;25868;-88
2021/06/30 04:02:02;;;;;;;8.75;6.22;;;;;;;17.72;77.13;96378.81;1755678;81;28242;-88
2021/06/30 04:04:29;;;;;;;8.88;5.58;;;;;;;17.75;77.29;96393.27;1755607;81;26274;-88
2021/06/30 04:06:55;;;;;;;13.13;6.53;;;;;;;17.76;77.33;96390.23;1755970;81;25824;-89
2021/06/30 04:09:22;;;;;;;6.40;5.85;;;;;;;17.80;77.44;96394.04;1755879;81;26323;-89
2021/06/30 04:11:49;;;;;;;10.32;6.47;;;;;;;17.86;77.56;96387.47;1755761;80;25886;-88
2021/06/30 04:14:16;;;;;;;6.87;6.00;;;;;;;17.93;77.53;96387.95;1755642;80;28182;-88
2021/06/30 04:16:43;;;;;;;9.65;6.10;;;;;;;18.02;77.52;96397.72;1755713;81;26406;-87
2021/06/30 04:19:09;;;;;;;10.55;6.30;;;;;;;18.09;77.34;96403.70;1755701;80;25783;-89
2021/06/30 04:21:36;;;;;;;8.85;7.28;;;;;;;18.14;77.36;96405.02;1755781;80;25691;-87
2021/06/30 04:24:03;;;;;;;11.33;7.22;;;;;;;18.21;77.27;96420.55;1755769;81;25715;-86
2021/06/30 04:26:29;;;;;;;7.75;6.58;;;;;;;18.28;77.22;96417.48;1759211;80;27349;-87
2021/06/30 04:28:56;;;;;;;7.95;6.80;;;;;;;18.34;77.11;96421.83;1755853;81;25828;-86
2021/06/30 04:31:22;;;;;;;9.73;6.47;;;;;;;18.39;77.03;96423.69;1755884;81;25737;-88
2021/06/30 04:33:49;;;;;;;9.65;7.08;;;;;;;18.44;77.06;96423.11;1755796;81;26159;-88
2021/06/30 04:36:17;;;;;;;9.50;6.87;;;;;;;18.49;77.15;96420.88;1755870;81;25761;-84
2021/06/30 04:38:44;;;;;;;12.45;7.60;;;;;;;18.52;77.34;96418.95;1755775;81;28300;-85
2021/06/30 04:41:11;;;;;;;9.35;7.50;;;;;;;18.57;77.39;96416.19;1787001;80;25968;-86
2021/06/30 04:43:39;;;;;;;8.20;6.70;;;;;;;18.64;77.44;96416.69;1745453;81;25816;-86
2021/06/30 04:46:07;;;;;;;8.33;6.70;;;;;;;18.73;77.46;96414.96;1736375;81;25888;-86
2021/06/30 04:48:34;;;;;;;11.43;7.30;;;;;;;18.80;77.40;96412.73;1744773;80;25720;-86
2021/06/30 04:51:03;;;;;;;7.40;6.67;;;;;;;18.88;77.53;96425.77;1761923;80;28455;-85
2021/06/30 04:53:32;;;;;;;7.72;6.97;;;;;;;18.94;77.44;96433.39;1750182;81;25782;-86
2021/06/30 04:55:59;;;;;;;12.95;7.75;;;;;;;19.00;77.38;96445.89;1754656;81;25758;-83
2021/06/30 04:58:27;;;;;;;10.58;7.20;;;;;;;19.05;77.41;96463.09;1734942;81;25598;-84
2021/06/30 05:00:56;;;;;;;12.23;6.97;;;;;;;19.06;76.95;96471.55;1786475;80;25703;-82
2021/06/30 05:03:30;;;;;;;10.63;6.83;;;;;;;19.08;76.71;96474.56;1782222;80;28211;-81
2021/06/30 05:05:57;;;;;;;9.73;6.60;;;;;;;19.11;76.51;96475.33;1787004;79;25768;-82
2021/06/30 05:08:24;;;;;;;8.10;6.87;;;;;;;19.11;76.37;96482.16;1787236;80;25778;-81
2021/06/30 05:10:51;;;;;;;9.60;6.90;;;;;;;19.13;76.22;96491.72;1787240;80;26197;-81
2021/06/30 05:13:19;;;;;;;9.75;7.78;;;;;;;19.16;76.06;96489.78;1785909;80;25760;-80
2021/06/30 05:15:45;;;;;;;10.05;7.28;;;;;;;19.18;76.05;96479.92;1786819;80;28399;-81
2021/06/30 05:18:12;;;;;;;10.18;7.83;;;;;;;19.23;75.96;96477.13;1786903;80;25724;-81
2021/06/30 05:20:38;;;;;;;10.13;6.45;;;;;;;19.26;75.96;96486.13;1786054;80;25612;-82
2021/06/30 05:23:05;;;;;;;10.82;7.67;;;;;;;19.30;75.94;96490.75;1787670;79;25756;-81
2021/06/30 05:25:32;;;;;;;12.50;6.92;;;;;;;19.34;75.81;96493.70;1787311;80;25782;-82
2021/06/30 05:27:58;;;;;;;15.13;7.50;;;;;;;19.39;75.75;96501.31;1787180;80;28004;-81
2021/06/30 05:30:25;;;;;;;13.45;7.12;;;;;;;19.45;75.62;96502.06;1786706;79;25762;-82
2021/06/30 05:32:52;;;;;;;11.93;6.62;;;;;;;19.52;75.50;96499.03;1787335;80;25686;-82
2021/06/30 05:35:18;;;;;;;9.30;6.60;;;;;;;19.57;75.44;96495.67;1787063;80;26346;-80
2021/06/30 05:37:45;;;;;;;10.70;6.90;;;;;;;19.63;75.54;96500.55;1787317;80;25665;-84
2021/06/30 05:40:12;;;;;;;9.28;6.35;;;;;;;19.69;75.48;96502.92;1787339;80;27402;-81
2021/06/30 05:42:38;;;;;;;10.32;7.08;;;;;;;19.76;75.24;96504.78;1787185;79;26554;-81
2021/06/30 05:45:07;;;;;;;10.70;7.05;;;;;;;19.84;75.09;96507.97;1787355;80;25767;-82
2021/06/30 05:47:34;;;;;;;6.85;5.75;;;;;;;19.91;74.87;96508.45;1783686;80;25757;-84
2021/06/30 05:50:00;;;;;;;7.80;5.50;;;;;;;19.96;74.61;96507.82;1752712;81;25760;-80
2021/06/30 05:52:27;;;;;;;10.78;5.50;;;;;;;20.01;74.33;96515.17;1783045;80;27342;-84
2021/06/30 05:54:54;;;;;;;7.50;5.25;;;;;;;20.05;74.01;96534.00;1784834;79;25929;-84
2021/06/30 05:57:21;;;;;;;8.75;5.58;;;;;;;20.09;73.90;96532.31;1736212;81;25880;-83
2021/06/30 05:59:47;;;;;;;6.67;4.87;;;;;;;20.15;73.74;96532.53;1751921;80;25699;-82
2021/06/30 06:02:14;;;;;;;7.80;4.80;;;;;;;20.19;73.55;96543.14;1744258;80;25673;-84
2021/06/30 06:04:40;;;;;;;10.35;5.28;;;;;;;20.23;73.32;96544.20;1750482;81;27582;-84
2021/06/30 06:07:07;;;;;;;6.85;4.87;;;;;;;20.28;73.09;96552.37;1747738;81;25729;-81
2021/06/30 06:09:33;;;;;;;9.25;4.90;;;;;;;20.31;72.97;96546.27;1753695;81;25728;-82
2021/06/30 06:12:00;;;;;;;6.78;4.60;;;;;;;20.37;72.91;96549.81;1744667;81;25826;-84
2021/06/30 06:14:27;;;;;;;6.35;4.22;;;;;;;20.40;72.75;96552.78;1749420;81;25750;-82
2021/06/30 06:16:54;;;;;;;9.50;4.85;;;;;;;20.42;72.59;96545.05;1752411;81;27363;-84
2021/06/30 06:19:21;;;;;;;5.95;4.53;;;;;;;20.41;72.42;96540.69;1749707;80;25782;-82
2021/06/30 06:21:48;;;;;;;9.48;4.70;;;;;;;20.41;72.37;96536.57;1756411;80;25769;-83
2021/06/30 06:24:15;;;;;;;6.37;4.50;;;;;;;20.39;72.13;96540.74;1729879;81;26207;-82
2021/06/30 06:26:42;;;;;;;5.85;4.40;;;;;;;20.36;72.12;96537.21;1744452;81;25752;-83
2021/06/30 06:29:09;;;;;;;9.88;4.33;;;;;;;20.35;71.95;96547.36;1757243;81;27401;-82
2021/06/30 06:31:37;;;;;;;7.80;4.45;;;;;;;20.35;71.88;96555.58;1755650;81;25711;-81
2021/06/30 06:34:03;;;;;;;7.85;4.70;;;;;;;20.40;71.82;96558.27;1742200;81;25742;-82
2021/06/30 06:36:30;;;;;;;8.48;4.83;;;;;;;20.44;71.67;96556.55;1747378;81;25796;-83
2021/06/30 06:38:56;;;;;;;6.47;4.10;;;;;;;20.47;71.60;96550.48;1743185;80;25723;-82
2021/06/30 06:41:23;;;;;;;7.22;4.45;;;;;;;20.52;71.75;96549.61;1750698;81;28320;-84
2021/06/30 06:43:50;;;;;;;5.78;4.47;;;;;;;20.55;71.52;96548.18;1745265;81;25663;-85
2021/06/30 06:46:16;;;;;;;8.35;3.80;;;;;;;20.60;71.40;96548.13;1744658;81;25773;-83
2021/06/30 06:48:43;;;;;;;4.37;3.98;;;;;;;20.63;71.38;96547.53;1741734;81;25643;-82
2021/06/30 06:51:10;;;;;;;6.85;4.05;;;;;;;20.68;71.07;96547.45;1741041;81;25278;-82
2021/06/30 06:53:36;;;;;;;6.05;3.95;;;;;;;20.71;71.02;96544.94;1754901;81;28162;-80
2021/06/30 06:56:08;;;;;;;5.10;3.92;;;;;;;20.72;71.07;96547.13;1733541;81;26358;-81
2021/06/30 06:58:32;;;;;;;4.92;4.30;;;;;;;20.73;70.99;96548.20;1754418;80;25780;-81
2021/06/30 07:00:58;;;;;;;5.35;3.95;;;;;;;20.78;70.85;96555.52;1736549;81;25698;-80
2021/06/30 07:03:25;;;;;;;7.72;3.80;;;;;;;20.82;70.88;96540.11;1758397;81;25237;-84
2021/06/30 07:05:52;;;;;;;4.28;3.02;;;;;;;20.86;70.66;96550.75;1764654;81;28356;-85
2021/06/30 07:08:18;;;;;;;3.75;2.60;;;;;;;20.89;70.26;96546.61;1763497;80;25843;-81
2021/06/30 07:10:45;;;;;;;3.83;2.98;;;;;;;20.96;70.03;96538.25;1760769;80;25805;-86
2021/06/30 07:13:12;;;;;;;5.35;2.98;;;;;;;21.02;69.78;96542.52;1743455;81;25776;-82
2021/06/30 07:15:41;;;;;;;4.62;2.65;;;;;;;21.07;69.50;96532.04;1762368;80;25767;-83
2021/06/30 07:18:14;;;;;;;5.33;2.70;;;;;;;21.12;69.39;96531.41;1756352;81;28217;-82
2021/06/30 07:20:42;;;;;;;3.62;2.60;;;;;;;21.16;68.95;96532.42;1750593;81;25945;-82
2021/06/30 07:23:10;;;;;;;5.65;2.95;;;;;;;21.20;68.48;96523.89;1761386;81;25863;-80
2021/06/30 07:25:37;;;;;;;7.90;2.70;;;;;;;21.27;68.58;96526.78;1748898;81;26316;-80
2021/06/30 07:28:05;;;;;;;4.62;3.15;;;;;;;21.37;68.50;96530.20;1754544;81;26363;-81
2021/06/30 07:30:32;;;;;;;4.30;3.08;;;;;;;21.46;68.23;96525.63;1763467;81;27350;-85
2021/06/30 07:33:00;;;;;;;4.33;2.98;;;;;;;21.52;67.79;96520.29;1760560;81;25762;-82
2021/06/30 07:35:26;;;;;;;4.20;2.87;;;;;;;21.61;67.70;96513.56;1741960;81;25697;-83
2021/06/30 07:37:53;;;;;;;4.08;2.85;;;;;;;21.69;67.72;96507.36;1752336;81;25756;-81
2021/06/30 07:40:19;;;;;;;3.65;2.80;;;;;;;21.77;67.37;96512.13;1758434;80;25652;-84
2021/06/30 07:42:46;;;;;;;7.97;3.55;;;;;;;21.85;67.36;96512.82;1733578;81;27508;-81
2021/06/30 07:45:13;;;;;;;5.25;2.80;;;;;;;21.94;67.16;96514.28;1741223;79;25718;-84
2021/06/30 07:47:40;;;;;;;3.00;2.70;;;;;;;22.04;67.06;96516.86;1766421;79;25882;-84
2021/06/30 07:50:08;;;;;;;4.80;3.25;;;;;;;22.14;66.75;96512.52;1760718;81;25732;-86
2021/06/30 07:52:35;;;;;;;5.97;2.87;;;;;;;22.22;66.31;96519.22;1744378;81;25754;-81
2021/06/30 07:55:03;;;;;;;7.03;3.25;;;;;;;22.32;66.54;96517.66;1760546;80;27513;-83
2021/06/30 07:57:30;;;;;;;3.83;3.35;;;;;;;22.45;66.22;96506.38;1777907;79;25731;-83
2021/06/30 07:59:57;;;;;;;6.05;3.05;;;;;;;22.59;65.85;96514.83;1732369;81;25837;-81
2021/06/30 08:02:23;;;;;;;5.95;3.22;;;;;;;22.79;65.83;96512.78;1761614;81;25751;-80
2021/06/30 08:04:50;;;;;;;4.67;3.22;;;;;;;23.09;65.70;96511.22;1764951;80;25769;-81
2021/06/30 08:07:16;;;;;;;3.45;3.12;;;;;;;23.36;65.21;96516.59;1764857;80;28249;-82
2021/06/30 08:09:43;;;;;;;6.17;3.15;;;;;;;23.72;64.60;96516.49;1765082;81;25231;-84
2021/06/30 08:12:10;;;;;;;5.97;3.80;;;;;;;24.09;63.98;96510.23;1755946;81;25792;-83
2021/06/30 08:14:36;;;;;;;3.42;3.00;;;;;;;24.42;64.00;96514.23;1762388;79;25774;-82
2021/06/30 08:17:04;;;;;;;3.90;3.50;;;;;;;24.82;63.02;96504.47;1749219;81;25680;-82
2021/06/30 08:19:31;;;;;;;7.30;3.33;;;;;;;25.14;62.59;96509.52;1753014;80;27606;-82
2021/06/30 08:21:58;;;;;;;5.00;2.72;;;;;;;25.45;62.17;96507.94;1750499;81;25702;-82
2021/06/30 08:24:25;;;;;;;3.95;2.92;;;;;;;25.82;61.40;96511.93;1761378;80;25757;-83
2021/06/30 08:26:52;;;;;;;6.33;3.27;;;;;;;25.99;60.72;96512.41;1735042;81;26365;-82
2021/06/30 08:29:21;;;;;;;6.08;3.10;;;;;;;26.19;60.58;96500.63;1734080;81;25770;-82
2021/06/30 08:31:47;;;;;;;3.75;3.12;;;;;;;26.45;60.04;96492.17;1757891;80;27599;-82
2021/06/30 08:34:14;;;;;;;5.28;2.80;;;;;;;26.80;59.35;96486.66;1762894;81;25823;-82
2021/06/30 08:36:41;;;;;;;3.52;2.90;;;;;;;27.14;58.62;96490.30;1760317;81;25668;-83
2021/06/30 08:39:09;;;;;;;5.00;2.83;;;;;;;27.30;58.24;96489.88;1747054;81;26486;-83
2021/06/30 08:41:36;;;;;;;4.22;3.05;;;;;;;27.55;58.08;96499.92;1761870;81;25684;-82
2021/06/30 08:44:03;;;;;;;2.62;2.40;;;;;;;27.89;57.16;96500.70;1759186;80;27488;-82
2021/06/30 08:46:32;;;;;;;7.47;2.87;;;;;;;27.98;56.44;96506.95;1722355;81;25775;-85
2021/06/30 08:48:59;;;;;;;5.95;2.80;;;;;;;28.16;56.11;96513.08;1740517;81;25282;-84
2021/06/30 08:51:26;;;;;;;5.87;2.90;;;;;;;28.51;55.57;96502.34;1747594;81;26439;-80
2021/06/30 08:53:56;;;;;;;2.98;2.67;;;;;;;28.75;55.02;96505.66;1764692;81;25656;-80
2021/06/30 08:56:33;;;;;;;4.45;3.00;;;;;;;28.98;54.48;96508.98;1758054;81;27436;-81
2021/06/30 08:59:01;;;;;;;3.02;2.72;;;;;;;29.18;53.60;96506.38;1735728;81;25851;-81
2021/06/30 09:01:30;;;;;;;2.95;2.70;;;;;;;29.19;52.96;96501.06;1759630;80;25736;-81
2021/06/30 09:03:58;;;;;;;3.27;2.60;;;;;;;29.46;52.58;96500.28;1764980;81;25730;-81
2021/06/30 09:06:27;;;;;;;3.87;2.70;;;;;;;29.73;52.20;96500.80;1745646;81;25729;-81
2021/06/30 09:08:57;;;;;;;6.37;2.80;;;;;;;29.96;51.43;96500.22;1764639;80;27623;-81
2021/06/30 09:11:29;;;;;;;4.35;2.90;;;;;;;30.14;51.65;96495.12;1767950;79;25735;-81
2021/06/30 09:14:20;;;;;;;;;;;;;;;30.41;51.04;96511.72;1759354;80;25895;-81
2021/06/30 09:16:56;;;;;;;3.83;2.80;;;;;;;30.73;49.56;96503.31;1750450;79;26200;-83
2021/06/30 09:19:21;;;;;;;9.90;3.15;;;;;;;30.66;49.95;96498.99;1759379;81;25646;-81
2021/06/30 09:21:51;;;;;;;3.08;2.70;;;;;;;30.90;49.53;96491.77;1753978;79;27576;-81
2021/06/30 09:24:18;;;;;;;5.37;2.67;;;;;;;30.99;49.68;96495.15;1765575;81;26364;-81
2021/06/30 09:26:56;;;;;;;4.70;3.00;;;;;;;31.13;49.57;96487.71;1757768;81;25703;-81
2021/06/30 09:29:24;;;;;;;4.70;2.77;;;;;;;31.39;49.03;96491.23;1754932;81;26317;-81
2021/06/30 09:31:53;;;;;;;4.10;2.80;;;;;;;31.54;48.43;96486.13;1766312;81;25699;-81
2021/06/30 09:34:23;;;;;;;3.98;2.70;;;;;;;31.75;48.12;96486.58;1756737;81;27358;-81
2021/06/30 09:37:02;;;;;;;3.75;3.00;;;;;;;31.81;47.41;96482.28;1762821;79;26005;-80
2021/06/30 09:39:27;;;;;;;6.65;3.20;;;;;;;31.88;47.41;96482.22;1759868;79;25720;-82
2021/06/30 09:42:10;;;;;;;7.03;2.98;;;;;;;32.01;46.70;96480.82;1766767;80;25728;-82
2021/06/30 09:44:40;;;;;;;3.42;2.72;;;;;;;31.95;46.47;96485.12;1750157;80;25727;-82
2021/06/30 09:47:08;;;;;;;3.95;2.42;;;;;;;32.07;46.04;96473.77;1751040;80;28509;-81
2021/06/30 09:49:37;;;;;;;4.90;2.50;;;;;;;32.06;45.54;96476.34;1776221;80;25739;-84
2021/06/30 09:52:21;;;;;;;5.40;2.70;;;;;;;31.92;45.68;96483.06;1784962;80;25751;-81
2021/06/30 09:54:46;;;;;;;4.72;2.70;;;;;;;31.95;45.44;96478.14;1743406;81;26266;-81
2021/06/30 09:57:15;;;;;;;3.42;2.87;;;;;;;31.89;45.57;96487.98;1743361;80;25762;-81
2021/06/30 09:59:45;;;;;;;5.25;3.37;;;;;;;32.00;45.24;96486.22;1747086;81;27370;-80
2021/06/30 10:02:17;;;;;;;3.80;3.20;;;;;;;31.78;45.22;96487.20;1786096;79;25933;-85
2021/06/30 10:04:51;;;;;;;4.75;3.20;;;;;;;31.78;45.12;96487.20;1787473;80;25723;-84
2021/06/30 10:07:25;;;;;;;8.53;3.20;;;;;;;31.85;45.11;96492.94;1786212;78;26167;-81
2021/06/30 10:09:57;;;;;;;6.03;3.00;;;;;;;32.01;44.98;96489.19;1787501;78;25226;-80
2021/06/30 10:12:27;;;;;;;5.33;3.45;;;;;;;31.77;44.48;96487.58;1787218;79;28577;-82
2021/06/30 10:14:56;;;;;;;3.33;3.02;;;;;;;31.72;44.49;96485.91;1785779;79;25771;-83
2021/06/30 10:17:24;;;;;;;3.67;3.33;;;;;;;31.60;44.81;96492.22;1765102;79;25689;-83
2021/06/30 10:19:53;;;;;;;6.08;3.80;;;;;;;31.73;44.61;96488.92;1763868;79;25724;-80
2021/06/30 10:22:23;;;;;;;6.65;3.83;;;;;;;31.92;44.38;96492.83;1777505;79;25763;-80
2021/06/30 10:24:50;;;;;;;4.55;3.70;;;;;;;32.08;43.80;96483.75;1765825;79;28204;-81
2021/06/30 10:27:17;;;;;;;6.65;4.00;;;;;;;32.18;43.73;96483.15;1775787;78;25703;-81
2021/06/30 10:29:48;;;;;;;3.77;3.30;;;;;;;32.23;43.75;96479.25;1772251;79;25697;-81
2021/06/30 10:32:16;;;;;;;5.12;3.80;;;;;;;32.22;43.93;96471.46;1769904;79;25732;-80
2021/06/30 10:34:57;;;;;;;5.20;3.85;;;;;;;32.31;43.89;96478.17;1758974;79;25693;-80
2021/06/30 10:37:27;;;;;;;5.80;3.70;;;;;;;32.17;44.10;96471.14;1779695;79;28187;-82
2021/06/30 10:40:10;;;;;;;5.45;3.70;;;;;;;32.04;43.93;96466.94;1780233;79;25683;-82
2021/06/30 10:42:43;;;;;;;6.72;4.03;;;;;;;32.12;43.96;96461.67;1775493;79;25806;-82
2021/06/30 10:45:21;;;;;;;4.83;3.95;;;;;;;32.24;43.77;96461.32;1782484;79;25798;-84
2021/06/30 10:47:52;;;;;;;7.53;3.65;;;;;;;32.36;43.38;96466.11;1789720;80;25687;-82
2021/06/30 10:50:40;;;;;;;6.50;4.30;;;;;;;32.46;43.04;96454.29;1777765;79;32906;-84
2021/06/30 10:53:12;;;;;;;9.10;4.05;;;;;;;32.52;42.93;96450.56;1783003;79;25679;-84
2021/06/30 10:55:48;;;;;;;5.25;3.80;;;;;;;32.63;42.96;96449.32;1780689;79;25885;-81
2021/06/30 10:58:17;;;;;;;6.30;4.25;;;;;;;32.56;43.04;96456.43;1789400;80;26216;-81
2021/06/30 11:00:49;;;;;;;7.35;4.15;;;;;;;32.26;43.29;96456.95;1781965;80;25827;-82
2021/06/30 11:03:48;;;;;;;5.05;3.95;;;;;;;32.20;43.71;96455.67;1778073;79;27373;-83
2021/06/30 11:06:27;;;;;;;7.40;4.28;;;;;;;32.18;43.42;96460.23;1789886;79;25738;-82
2021/06/30 11:09:22;;;;;;;7.12;4.25;;;;;;;32.15;42.92;96457.34;1776049;79;25778;-84
2021/06/30 11:11:53;;;;;;;7.50;4.35;;;;;;;32.29;43.14;96465.98;1760697;80;25832;-82
2021/06/30 11:14:20;;;;;;;4.72;4.05;;;;;;;32.36;42.55;96464.72;1780771;79;25798;-82
2021/06/30 11:16:54;;;;;;;8.43;4.35;;;;;;;32.40;42.36;96458.57;1744745;81;27450;-84
2021/06/30 11:19:26;;;;;;;5.45;4.15;;;;;;;32.43;42.65;96459.22;1735831;81;25268;-82
2021/06/30 11:22:08;;;;;;;5.70;4.37;;;;;;;32.46;42.59;96456.27;1729198;81;25903;-84
2021/06/30 11:24:40;;;;;;;8.30;4.53;;;;;;;32.49;42.17;96452.70;1737294;81;25785;-84
2021/06/30 11:27:26;;;;;;;4.58;4.17;;;;;;;32.43;42.24;96450.84;1724873;81;25797;-85
2021/06/30 11:30:08;;;;;;;5.00;4.00;;;;;;;32.32;42.02;96448.48;1744817;80;27460;-83
2021/06/30 11:32:42;;;;;;;5.37;4.10;;;;;;;32.27;42.06;96447.39;1741129;81;25838;-85
2021/06/30 11:35:19;;;;;;;8.08;4.90;;;;;;;32.05;42.20;96451.00;1749619;81;25685;-81
2021/06/30 11:37:50;;;;;;;8.38;4.30;;;;;;;31.91;42.56;96446.56;1734490;81;25772;-80